sensor_id;sensor_type;location;lat;lon;timestamp;P1;durP1;ratioP1;P2;durP2;ratioP2
31336;SDS011;22846;42.654;23.314;2023-04-25T00:01:20;7.22;;;5.28;;
31336;SDS011;22846;42.654;23.314;2023-04-25T00:03:46;7.70;;;4.75;;
31336;SDS011;22846;42.654;23.314;2023-04-25T00:06:12;5.32;;;4.25;;
31336;SDS011;22846;42.654;23.314;2023-04-25T00:08:38;6.70;;;5.35;;
31336;SDS011;22846;42.654;23.314;2023-04-25T00:11:04;8.07;;;4.68;;
31336;SDS011;22846;42.654;23.314;2023-04-25T00:13:30;6.68;;;4.57;;
31336;SDS011;22846;42.654;23.314;2023-04-25T00:15:55;8.48;;;4.70;;
31336;SDS011;22846;42.654;23.314;2023-04-25T00:18:23;6.20;;;4.38;;
31336;SDS011;22846;42.654;23.314;2023-04-25T00:20:49;5.13;;;4.15;;
31336;SDS011;22846;42.654;23.314;2023-04-25T00:23:15;5.45;;;4.72;;
31336;SDS011;22846;42.654;23.314;2023-04-25T00:25:43;6.95;;;4.28;;
31336;SDS011;22846;42.654;23.314;2023-04-25T00:28:10;5.95;;;4.32;;
31336;SDS011;22846;42.654;23.314;2023-04-25T00:30:36;5.40;;;4.15;;
31336;SDS011;22846;42.654;23.314;2023-04-25T00:33:02;5.28;;;3.88;;
31336;SDS011;22846;42.654;23.314;2023-04-25T00:35:27;4.60;;;3.90;;
31336;SDS011;22846;42.654;23.314;2023-04-25T00:37:53;5.10;;;4.00;;
31336;SDS011;22846;42.654;23.314;2023-04-25T00:40:19;5.55;;;4.25;;
31336;SDS011;22846;42.654;23.314;2023-04-25T00:42:45;5.35;;;4.22;;
31336;SDS011;22846;42.654;23.314;2023-04-25T00:45:12;5.38;;;4.13;;
31336;SDS011;22846;42.654;23.314;2023-04-25T00:47:40;4.85;;;3.88;;
31336;SDS011;22846;42.654;23.314;2023-04-25T00:50:05;7.63;;;3.83;;
31336;SDS011;22846;42.654;23.314;2023-04-25T00:52:32;4.95;;;3.92;;
31336;SDS011;22846;42.654;23.314;2023-04-25T00:54:57;4.93;;;3.58;;
31336;SDS011;22846;42.654;23.314;2023-04-25T00:57:23;5.22;;;3.40;;
31336;SDS011;22846;42.654;23.314;2023-04-25T00:59:48;4.07;;;3.15;;
31336;SDS011;22846;42.654;23.314;2023-04-25T01:02:16;5.03;;;3.72;;
31336;SDS011;22846;42.654;23.314;2023-04-25T01:04:42;4.28;;;3.35;;
31336;SDS011;22846;42.654;23.314;2023-04-25T01:07:07;4.50;;;3.42;;
31336;SDS011;22846;42.654;23.314;2023-04-25T01:09:33;5.63;;;3.88;;
31336;SDS011;22846;42.654;23.314;2023-04-25T01:11:59;5.70;;;3.63;;
31336;SDS011;22846;42.654;23.314;2023-04-25T01:14:26;5.18;;;3.70;;
31336;SDS011;22846;42.654;23.314;2023-04-25T01:16:51;5.32;;;3.55;;
31336;SDS011;22846;42.654;23.314;2023-04-25T01:19:17;3.92;;;3.42;;
31336;SDS011;22846;42.654;23.314;2023-04-25T01:21:44;4.03;;;3.28;;
31336;SDS011;22846;42.654;23.314;2023-04-25T01:24:10;3.80;;;3.15;;
31336;SDS011;22846;42.654;23.314;2023-04-25T01:26:36;4.13;;;3.30;;
31336;SDS011;22846;42.654;23.314;2023-04-25T01:29:03;4.78;;;3.30;;
31336;SDS011;22846;42.654;23.314;2023-04-25T01:31:29;4.20;;;3.25;;
31336;SDS011;22846;42.654;23.314;2023-04-25T01:33:56;4.05;;;3.33;;
31336;SDS011;22846;42.654;23.314;2023-04-25T01:36:21;4.53;;;3.33;;
31336;SDS011;22846;42.654;23.314;2023-04-25T01:38:47;3.97;;;3.03;;
31336;SDS011;22846;42.654;23.314;2023-04-25T01:41:13;4.35;;;3.25;;
31336;SDS011;22846;42.654;23.314;2023-04-25T01:43:39;4.57;;;3.03;;
31336;SDS011;22846;42.654;23.314;2023-04-25T01:46:05;4.63;;;2.92;;
31336;SDS011;22846;42.654;23.314;2023-04-25T01:48:31;3.50;;;2.95;;
31336;SDS011;22846;42.654;23.314;2023-04-25T01:50:56;4.03;;;3.03;;
31336;SDS011;22846;42.654;23.314;2023-04-25T01:53:22;4.25;;;3.15;;
31336;SDS011;22846;42.654;23.314;2023-04-25T01:55:47;4.43;;;3.10;;
31336;SDS011;22846;42.654;23.314;2023-04-25T01:58:13;4.10;;;2.72;;
31336;SDS011;22846;42.654;23.314;2023-04-25T02:00:38;3.25;;;2.95;;
31336;SDS011;22846;42.654;23.314;2023-04-25T02:03:05;3.75;;;2.63;;
31336;SDS011;22846;42.654;23.314;2023-04-25T02:05:35;3.40;;;2.72;;
31336;SDS011;22846;42.654;23.314;2023-04-25T02:08:02;4.53;;;3.25;;
31336;SDS011;22846;42.654;23.314;2023-04-25T02:10:28;4.50;;;3.03;;
31336;SDS011;22846;42.654;23.314;2023-04-25T02:12:53;3.40;;;2.65;;
31336;SDS011;22846;42.654;23.314;2023-04-25T02:15:19;3.55;;;2.50;;
31336;SDS011;22846;42.654;23.314;2023-04-25T02:17:44;4.18;;;2.97;;
31336;SDS011;22846;42.654;23.314;2023-04-25T02:20:10;4.00;;;2.70;;
31336;SDS011;22846;42.654;23.314;2023-04-25T02:22:35;3.33;;;2.70;;
31336;SDS011;22846;42.654;23.314;2023-04-25T02:25:01;3.15;;;2.47;;
31336;SDS011;22846;42.654;23.314;2023-04-25T02:27:29;3.08;;;2.38;;
31336;SDS011;22846;42.654;23.314;2023-04-25T02:29:55;2.80;;;2.50;;
31336;SDS011;22846;42.654;23.314;2023-04-25T02:32:21;2.75;;;2.35;;
31336;SDS011;22846;42.654;23.314;2023-04-25T02:34:46;3.60;;;2.58;;
31336;SDS011;22846;42.654;23.314;2023-04-25T02:37:13;3.88;;;3.03;;
31336;SDS011;22846;42.654;23.314;2023-04-25T02:39:38;3.42;;;2.95;;
31336;SDS011;22846;42.654;23.314;2023-04-25T02:42:04;4.05;;;2.85;;
31336;SDS011;22846;42.654;23.314;2023-04-25T02:44:29;3.65;;;2.65;;
31336;SDS011;22846;42.654;23.314;2023-04-25T02:46:55;3.13;;;2.35;;
31336;SDS011;22846;42.654;23.314;2023-04-25T02:49:20;2.97;;;2.40;;
31336;SDS011;22846;42.654;23.314;2023-04-25T02:51:45;2.90;;;2.30;;
31336;SDS011;22846;42.654;23.314;2023-04-25T02:54:11;2.90;;;2.22;;
31336;SDS011;22846;42.654;23.314;2023-04-25T02:56:36;3.10;;;2.60;;
31336;SDS011;22846;42.654;23.314;2023-04-25T02:59:02;5.03;;;2.40;;
31336;SDS011;22846;42.654;23.314;2023-04-25T03:01:27;4.18;;;2.50;;
31336;SDS011;22846;42.654;23.314;2023-04-25T03:03:52;2.67;;;2.20;;
31336;SDS011;22846;42.654;23.314;2023-04-25T03:06:18;3.17;;;2.30;;
31336;SDS011;22846;42.654;23.314;2023-04-25T03:08:43;2.75;;;2.35;;
31336;SDS011;22846;42.654;23.314;2023-04-25T03:11:08;3.85;;;2.25;;
31336;SDS011;22846;42.654;23.314;2023-04-25T03:13:34;3.40;;;2.40;;
31336;SDS011;22846;42.654;23.314;2023-04-25T03:15:59;2.33;;;1.98;;
31336;SDS011;22846;42.654;23.314;2023-04-25T03:18:25;2.40;;;2.10;;
31336;SDS011;22846;42.654;23.314;2023-04-25T03:20:50;2.72;;;1.95;;
31336;SDS011;22846;42.654;23.314;2023-04-25T03:23:15;2.50;;;2.30;;
31336;SDS011;22846;42.654;23.314;2023-04-25T03:25:41;3.15;;;2.25;;
31336;SDS011;22846;42.654;23.314;2023-04-25T03:28:06;5.38;;;2.50;;
31336;SDS011;22846;42.654;23.314;2023-04-25T03:30:32;2.78;;;2.00;;
31336;SDS011;22846;42.654;23.314;2023-04-25T03:32:57;2.00;;;1.80;;
31336;SDS011;22846;42.654;23.314;2023-04-25T03:35:23;2.55;;;2.08;;
31336;SDS011;22846;42.654;23.314;2023-04-25T03:37:48;2.10;;;1.80;;
31336;SDS011;22846;42.654;23.314;2023-04-25T03:40:14;2.47;;;2.13;;
31336;SDS011;22846;42.654;23.314;2023-04-25T03:42:39;2.90;;;2.03;;
31336;SDS011;22846;42.654;23.314;2023-04-25T03:45:05;2.45;;;2.05;;
31336;SDS011;22846;42.654;23.314;2023-04-25T03:47:31;1.85;;;1.75;;
31336;SDS011;22846;42.654;23.314;2023-04-25T03:49:56;2.22;;;1.90;;
31336;SDS011;22846;42.654;23.314;2023-04-25T03:52:21;2.63;;;1.90;;
31336;SDS011;22846;42.654;23.314;2023-04-25T03:54:47;2.03;;;1.80;;
31336;SDS011;22846;42.654;23.314;2023-04-25T03:57:12;2.10;;;1.60;;
31336;SDS011;22846;42.654;23.314;2023-04-25T03:59:38;2.88;;;1.80;;
31336;SDS011;22846;42.654;23.314;2023-04-25T04:02:03;2.00;;;1.80;;
31336;SDS011;22846;42.654;23.314;2023-04-25T04:04:29;3.05;;;1.90;;
31336;SDS011;22846;42.654;23.314;2023-04-25T04:06:55;2.83;;;2.00;;
31336;SDS011;22846;42.654;23.314;2023-04-25T04:09:20;3.45;;;2.63;;
31336;SDS011;22846;42.654;23.314;2023-04-25T04:11:45;3.30;;;2.20;;
31336;SDS011;22846;42.654;23.314;2023-04-25T04:14:11;3.55;;;2.05;;
31336;SDS011;22846;42.654;23.314;2023-04-25T04:16:36;3.13;;;2.30;;
31336;SDS011;22846;42.654;23.314;2023-04-25T04:19:02;3.65;;;2.60;;
31336;SDS011;22846;42.654;23.314;2023-04-25T04:21:27;7.20;;;3.55;;
31336;SDS011;22846;42.654;23.314;2023-04-25T04:23:53;7.93;;;4.38;;
31336;SDS011;22846;42.654;23.314;2023-04-25T04:26:19;9.43;;;4.80;;
31336;SDS011;22846;42.654;23.314;2023-04-25T04:28:48;7.72;;;4.40;;
31336;SDS011;22846;42.654;23.314;2023-04-25T04:31:15;9.48;;;4.32;;
31336;SDS011;22846;42.654;23.314;2023-04-25T04:33:43;26.80;;;7.45;;
31336;SDS011;22846;42.654;23.314;2023-04-25T04:36:09;33.63;;;7.65;;
31336;SDS011;22846;42.654;23.314;2023-04-25T04:38:35;26.73;;;5.70;;
31336;SDS011;22846;42.654;23.314;2023-04-25T04:41:01;27.65;;;5.18;;
31336;SDS011;22846;42.654;23.314;2023-04-25T04:43:27;25.90;;;6.75;;
31336;SDS011;22846;42.654;23.314;2023-04-25T04:45:53;32.20;;;6.90;;
31336;SDS011;22846;42.654;23.314;2023-04-25T04:48:22;21.95;;;6.75;;
31336;SDS011;22846;42.654;23.314;2023-04-25T04:50:47;22.83;;;6.05;;
31336;SDS011;22846;42.654;23.314;2023-04-25T04:53:13;18.70;;;5.25;;
31336;SDS011;22846;42.654;23.314;2023-04-25T04:55:38;25.35;;;5.25;;
31336;SDS011;22846;42.654;23.314;2023-04-25T04:58:06;19.58;;;5.15;;
31336;SDS011;22846;42.654;23.314;2023-04-25T05:00:31;23.13;;;5.70;;
31336;SDS011;22846;42.654;23.314;2023-04-25T05:02:58;22.63;;;5.28;;
31336;SDS011;22846;42.654;23.314;2023-04-25T05:05:23;17.63;;;5.57;;
31336;SDS011;22846;42.654;23.314;2023-04-25T05:07:49;14.50;;;5.25;;
31336;SDS011;22846;42.654;23.314;2023-04-25T05:10:14;16.58;;;5.00;;
31336;SDS011;22846;42.654;23.314;2023-04-25T05:12:40;19.67;;;5.50;;
31336;SDS011;22846;42.654;23.314;2023-04-25T05:15:05;14.88;;;4.63;;
31336;SDS011;22846;42.654;23.314;2023-04-25T05:17:31;20.38;;;5.32;;
31336;SDS011;22846;42.654;23.314;2023-04-25T05:19:57;23.60;;;5.80;;
31336;SDS011;22846;42.654;23.314;2023-04-25T05:22:23;21.70;;;7.68;;
31336;SDS011;22846;42.654;23.314;2023-04-25T05:24:48;17.25;;;7.53;;
31336;SDS011;22846;42.654;23.314;2023-04-25T05:27:16;17.80;;;7.70;;
31336;SDS011;22846;42.654;23.314;2023-04-25T05:29:42;20.15;;;7.85;;
31336;SDS011;22846;42.654;23.314;2023-04-25T05:32:07;22.27;;;8.75;;
31336;SDS011;22846;42.654;23.314;2023-04-25T05:34:34;24.00;;;10.25;;
31336;SDS011;22846;42.654;23.314;2023-04-25T05:36:59;23.83;;;10.35;;
31336;SDS011;22846;42.654;23.314;2023-04-25T05:39:25;22.77;;;9.77;;
31336;SDS011;22846;42.654;23.314;2023-04-25T05:41:51;28.95;;;9.18;;
31336;SDS011;22846;42.654;23.314;2023-04-25T05:44:16;20.17;;;8.93;;
31336;SDS011;22846;42.654;23.314;2023-04-25T05:46:42;17.50;;;7.20;;
31336;SDS011;22846;42.654;23.314;2023-04-25T05:49:08;15.20;;;7.10;;
31336;SDS011;22846;42.654;23.314;2023-04-25T05:51:33;16.25;;;6.65;;
31336;SDS011;22846;42.654;23.314;2023-04-25T05:53:58;14.18;;;6.00;;
31336;SDS011;22846;42.654;23.314;2023-04-25T05:56:24;12.23;;;5.55;;
31336;SDS011;22846;42.654;23.314;2023-04-25T05:58:49;10.43;;;5.07;;
31336;SDS011;22846;42.654;23.314;2023-04-25T06:01:15;13.80;;;5.30;;
31336;SDS011;22846;42.654;23.314;2023-04-25T06:03:41;12.98;;;5.18;;
31336;SDS011;22846;42.654;23.314;2023-04-25T06:06:08;14.52;;;4.85;;
31336;SDS011;22846;42.654;23.314;2023-04-25T06:08:34;16.48;;;5.40;;
31336;SDS011;22846;42.654;23.314;2023-04-25T06:10:59;10.13;;;5.13;;
31336;SDS011;22846;42.654;23.314;2023-04-25T06:13:25;10.70;;;4.55;;
31336;SDS011;22846;42.654;23.314;2023-04-25T06:15:50;17.08;;;4.88;;
31336;SDS011;22846;42.654;23.314;2023-04-25T06:18:16;13.68;;;5.18;;
31336;SDS011;22846;42.654;23.314;2023-04-25T06:20:41;12.73;;;8.68;;
31336;SDS011;22846;42.654;23.314;2023-04-25T06:23:07;10.73;;;5.78;;
31336;SDS011;22846;42.654;23.314;2023-04-25T06:25:32;14.40;;;7.28;;
31336;SDS011;22846;42.654;23.314;2023-04-25T06:27:57;13.77;;;6.97;;
31336;SDS011;22846;42.654;23.314;2023-04-25T06:30:23;13.93;;;5.43;;
31336;SDS011;22846;42.654;23.314;2023-04-25T06:32:53;12.38;;;5.10;;
31336;SDS011;22846;42.654;23.314;2023-04-25T06:35:25;17.13;;;5.05;;
31336;SDS011;22846;42.654;23.314;2023-04-25T06:37:51;12.35;;;4.57;;
31336;SDS011;22846;42.654;23.314;2023-04-25T06:40:16;12.85;;;4.50;;
31336;SDS011;22846;42.654;23.314;2023-04-25T06:42:42;12.88;;;4.22;;
31336;SDS011;22846;42.654;23.314;2023-04-25T06:45:08;8.25;;;4.05;;
31336;SDS011;22846;42.654;23.314;2023-04-25T06:47:33;11.57;;;4.18;;
31336;SDS011;22846;42.654;23.314;2023-04-25T06:49:59;8.70;;;4.20;;
31336;SDS011;22846;42.654;23.314;2023-04-25T06:52:24;7.18;;;4.05;;
31336;SDS011;22846;42.654;23.314;2023-04-25T06:54:50;12.95;;;4.22;;
31336;SDS011;22846;42.654;23.314;2023-04-25T06:57:15;8.48;;;3.53;;
31336;SDS011;22846;42.654;23.314;2023-04-25T06:59:40;9.60;;;4.25;;
31336;SDS011;22846;42.654;23.314;2023-04-25T07:02:06;8.05;;;4.30;;
31336;SDS011;22846;42.654;23.314;2023-04-25T07:04:31;11.35;;;4.28;;
31336;SDS011;22846;42.654;23.314;2023-04-25T07:06:57;9.95;;;4.13;;
31336;SDS011;22846;42.654;23.314;2023-04-25T07:09:22;7.47;;;3.50;;
31336;SDS011;22846;42.654;23.314;2023-04-25T07:11:48;8.85;;;4.22;;
31336;SDS011;22846;42.654;23.314;2023-04-25T07:14:13;8.43;;;3.65;;
31336;SDS011;22846;42.654;23.314;2023-04-25T07:16:39;7.38;;;3.30;;
31336;SDS011;22846;42.654;23.314;2023-04-25T07:19:04;6.50;;;3.45;;
31336;SDS011;22846;42.654;23.314;2023-04-25T07:21:30;11.23;;;4.15;;
31336;SDS011;22846;42.654;23.314;2023-04-25T07:23:56;8.82;;;3.63;;
31336;SDS011;22846;42.654;23.314;2023-04-25T07:26:22;11.82;;;3.92;;
31336;SDS011;22846;42.654;23.314;2023-04-25T07:28:47;7.82;;;3.22;;
31336;SDS011;22846;42.654;23.314;2023-04-25T07:31:15;8.18;;;3.17;;
31336;SDS011;22846;42.654;23.314;2023-04-25T07:33:43;8.95;;;3.65;;
31336;SDS011;22846;42.654;23.314;2023-04-25T07:36:09;10.43;;;3.13;;
31336;SDS011;22846;42.654;23.314;2023-04-25T07:38:35;8.63;;;3.38;;
31336;SDS011;22846;42.654;23.314;2023-04-25T07:41:00;12.68;;;4.97;;
31336;SDS011;22846;42.654;23.314;2023-04-25T07:43:26;8.38;;;5.03;;
31336;SDS011;22846;42.654;23.314;2023-04-25T07:45:51;8.93;;;3.67;;
31336;SDS011;22846;42.654;23.314;2023-04-25T07:48:17;8.02;;;3.60;;
31336;SDS011;22846;42.654;23.314;2023-04-25T07:50:43;7.80;;;4.00;;
31336;SDS011;22846;42.654;23.314;2023-04-25T07:53:09;6.72;;;3.53;;
31336;SDS011;22846;42.654;23.314;2023-04-25T07:55:35;8.13;;;3.45;;
31336;SDS011;22846;42.654;23.314;2023-04-25T07:58:01;8.45;;;3.75;;
31336;SDS011;22846;42.654;23.314;2023-04-25T08:00:27;13.55;;;3.80;;
31336;SDS011;22846;42.654;23.314;2023-04-25T08:02:53;5.78;;;3.38;;
31336;SDS011;22846;42.654;23.314;2023-04-25T08:05:18;10.07;;;3.50;;
31336;SDS011;22846;42.654;23.314;2023-04-25T08:07:44;11.70;;;3.53;;
31336;SDS011;22846;42.654;23.314;2023-04-25T08:10:09;16.88;;;3.35;;
31336;SDS011;22846;42.654;23.314;2023-04-25T08:12:34;14.23;;;3.45;;
31336;SDS011;22846;42.654;23.314;2023-04-25T08:15:00;6.00;;;2.95;;
31336;SDS011;22846;42.654;23.314;2023-04-25T08:17:26;8.50;;;3.50;;
31336;SDS011;22846;42.654;23.314;2023-04-25T08:19:51;7.18;;;2.90;;
31336;SDS011;22846;42.654;23.314;2023-04-25T08:22:16;9.40;;;3.22;;
31336;SDS011;22846;42.654;23.314;2023-04-25T08:24:42;11.77;;;3.22;;
31336;SDS011;22846;42.654;23.314;2023-04-25T08:27:07;8.70;;;3.05;;
31336;SDS011;22846;42.654;23.314;2023-04-25T08:29:33;8.25;;;3.13;;
31336;SDS011;22846;42.654;23.314;2023-04-25T08:31:59;8.18;;;3.05;;
31336;SDS011;22846;42.654;23.314;2023-04-25T08:34:25;6.75;;;3.05;;
31336;SDS011;22846;42.654;23.314;2023-04-25T08:36:50;14.23;;;3.22;;
31336;SDS011;22846;42.654;23.314;2023-04-25T08:39:16;7.63;;;2.90;;
31336;SDS011;22846;42.654;23.314;2023-04-25T08:41:42;8.90;;;2.80;;
31336;SDS011;22846;42.654;23.314;2023-04-25T08:44:09;7.72;;;3.05;;
31336;SDS011;22846;42.654;23.314;2023-04-25T08:46:37;7.57;;;3.00;;
31336;SDS011;22846;42.654;23.314;2023-04-25T08:49:04;10.20;;;3.20;;
31336;SDS011;22846;42.654;23.314;2023-04-25T08:51:33;10.15;;;3.13;;
31336;SDS011;22846;42.654;23.314;2023-04-25T08:54:10;13.38;;;3.42;;
31336;SDS011;22846;42.654;23.314;2023-04-25T08:56:46;8.07;;;2.63;;
31336;SDS011;22846;42.654;23.314;2023-04-25T08:59:13;7.40;;;3.13;;
31336;SDS011;22846;42.654;23.314;2023-04-25T09:01:38;10.30;;;2.78;;
31336;SDS011;22846;42.654;23.314;2023-04-25T09:04:04;9.23;;;3.15;;
31336;SDS011;22846;42.654;23.314;2023-04-25T09:06:30;9.90;;;2.70;;
31336;SDS011;22846;42.654;23.314;2023-04-25T09:09:03;5.70;;;2.58;;
31336;SDS011;22846;42.654;23.314;2023-04-25T09:11:30;5.50;;;2.50;;
31336;SDS011;22846;42.654;23.314;2023-04-25T09:19:22;7.10;;;2.33;;
31336;SDS011;22846;42.654;23.314;2023-04-25T09:21:54;4.00;;;2.40;;
31336;SDS011;22846;42.654;23.314;2023-04-25T09:24:33;9.18;;;3.00;;
31336;SDS011;22846;42.654;23.314;2023-04-25T09:27:06;6.32;;;3.03;;
31336;SDS011;22846;42.654;23.314;2023-04-25T09:29:38;9.30;;;4.18;;
31336;SDS011;22846;42.654;23.314;2023-04-25T09:34:50;12.90;;;4.32;;
31336;SDS011;22846;42.654;23.314;2023-04-25T09:37:26;7.80;;;3.75;;
31336;SDS011;22846;42.654;23.314;2023-04-25T09:39:59;9.10;;;4.13;;
31336;SDS011;22846;42.654;23.314;2023-04-25T09:42:30;10.23;;;4.40;;
31336;SDS011;22846;42.654;23.314;2023-04-25T09:44:56;10.82;;;3.90;;
31336;SDS011;22846;42.654;23.314;2023-04-25T09:47:24;10.55;;;4.22;;
31336;SDS011;22846;42.654;23.314;2023-04-25T09:49:50;8.52;;;4.15;;
31336;SDS011;22846;42.654;23.314;2023-04-25T09:52:18;5.03;;;3.20;;
31336;SDS011;22846;42.654;23.314;2023-04-25T09:54:46;9.10;;;3.55;;
31336;SDS011;22846;42.654;23.314;2023-04-25T09:57:15;8.68;;;3.35;;
31336;SDS011;22846;42.654;23.314;2023-04-25T09:59:51;8.88;;;3.50;;
31336;SDS011;22846;42.654;23.314;2023-04-25T10:02:18;14.88;;;3.90;;
31336;SDS011;22846;42.654;23.314;2023-04-25T10:04:49;16.63;;;3.85;;
31336;SDS011;22846;42.654;23.314;2023-04-25T10:07:19;9.00;;;3.05;;
31336;SDS011;22846;42.654;23.314;2023-04-25T10:09:51;9.02;;;3.20;;
31336;SDS011;22846;42.654;23.314;2023-04-25T10:12:29;9.63;;;3.13;;
31336;SDS011;22846;42.654;23.314;2023-04-25T10:14:57;10.43;;;3.40;;
31336;SDS011;22846;42.654;23.314;2023-04-25T10:17:23;12.60;;;3.28;;
31336;SDS011;22846;42.654;23.314;2023-04-25T10:19:49;7.75;;;3.17;;
31336;SDS011;22846;42.654;23.314;2023-04-25T10:25:02;5.72;;;3.22;;
31336;SDS011;22846;42.654;23.314;2023-04-25T10:27:29;10.65;;;2.90;;
31336;SDS011;22846;42.654;23.314;2023-04-25T10:30:05;11.82;;;6.60;;
31336;SDS011;22846;42.654;23.314;2023-04-25T10:32:36;12.43;;;5.35;;
31336;SDS011;22846;42.654;23.314;2023-04-25T10:35:18;9.88;;;4.00;;
31336;SDS011;22846;42.654;23.314;2023-04-25T10:41:02;8.32;;;4.80;;
31336;SDS011;22846;42.654;23.314;2023-04-25T10:43:39;12.05;;;4.40;;
31336;SDS011;22846;42.654;23.314;2023-04-25T10:46:15;11.55;;;4.47;;
31336;SDS011;22846;42.654;23.314;2023-04-25T10:48:52;14.63;;;4.55;;
31336;SDS011;22846;42.654;23.314;2023-04-25T10:56:21;10.63;;;3.80;;
31336;SDS011;22846;42.654;23.314;2023-04-25T10:58:47;9.95;;;4.07;;
31336;SDS011;22846;42.654;23.314;2023-04-25T11:01:14;5.80;;;3.08;;
31336;SDS011;22846;42.654;23.314;2023-04-25T11:03:44;7.57;;;3.47;;
31336;SDS011;22846;42.654;23.314;2023-04-25T11:06:22;8.20;;;2.90;;
31336;SDS011;22846;42.654;23.314;2023-04-25T11:08:52;10.55;;;3.90;;
31336;SDS011;22846;42.654;23.314;2023-04-25T11:11:17;10.55;;;3.17;;
31336;SDS011;22846;42.654;23.314;2023-04-25T11:13:43;7.00;;;3.30;;
31336;SDS011;22846;42.654;23.314;2023-04-25T11:16:09;8.27;;;3.50;;
31336;SDS011;22846;42.654;23.314;2023-04-25T11:18:35;7.32;;;3.35;;
31336;SDS011;22846;42.654;23.314;2023-04-25T11:21:02;10.18;;;3.78;;
31336;SDS011;22846;42.654;23.314;2023-04-25T11:23:28;9.82;;;3.22;;
31336;SDS011;22846;42.654;23.314;2023-04-25T11:25:55;7.93;;;3.00;;
31336;SDS011;22846;42.654;23.314;2023-04-25T11:28:21;8.57;;;3.08;;
31336;SDS011;22846;42.654;23.314;2023-04-25T11:30:48;9.75;;;3.22;;
31336;SDS011;22846;42.654;23.314;2023-04-25T11:33:15;7.13;;;3.00;;
31336;SDS011;22846;42.654;23.314;2023-04-25T11:35:41;8.20;;;2.53;;
31336;SDS011;22846;42.654;23.314;2023-04-25T11:38:06;10.63;;;3.05;;
31336;SDS011;22846;42.654;23.314;2023-04-25T11:40:32;8.07;;;2.70;;
31336;SDS011;22846;42.654;23.314;2023-04-25T11:42:59;8.40;;;2.92;;
31336;SDS011;22846;42.654;23.314;2023-04-25T11:45:25;19.48;;;3.55;;
31336;SDS011;22846;42.654;23.314;2023-04-25T11:47:51;10.45;;;3.05;;
31336;SDS011;22846;42.654;23.314;2023-04-25T11:50:17;9.23;;;3.10;;
31336;SDS011;22846;42.654;23.314;2023-04-25T11:52:44;5.38;;;2.67;;
31336;SDS011;22846;42.654;23.314;2023-04-25T11:55:17;10.18;;;2.75;;
31336;SDS011;22846;42.654;23.314;2023-04-25T11:57:44;10.57;;;3.03;;
31336;SDS011;22846;42.654;23.314;2023-04-25T12:00:13;9.43;;;3.05;;
31336;SDS011;22846;42.654;23.314;2023-04-25T12:02:41;7.93;;;2.22;;
31336;SDS011;22846;42.654;23.314;2023-04-25T12:05:07;8.75;;;2.50;;
31336;SDS011;22846;42.654;23.314;2023-04-25T12:07:34;10.25;;;5.07;;
31336;SDS011;22846;42.654;23.314;2023-04-25T12:10:04;9.52;;;2.97;;
31336;SDS011;22846;42.654;23.314;2023-04-25T12:12:34;6.20;;;3.00;;
31336;SDS011;22846;42.654;23.314;2023-04-25T12:15:23;8.60;;;3.10;;
31336;SDS011;22846;42.654;23.314;2023-04-25T12:17:50;8.95;;;3.17;;
31336;SDS011;22846;42.654;23.314;2023-04-25T12:20:17;5.47;;;3.15;;
31336;SDS011;22846;42.654;23.314;2023-04-25T12:22:48;4.65;;;2.72;;
31336;SDS011;22846;42.654;23.314;2023-04-25T12:28:13;10.68;;;3.05;;
31336;SDS011;22846;42.654;23.314;2023-04-25T12:30:53;6.05;;;3.00;;
31336;SDS011;22846;42.654;23.314;2023-04-25T12:33:19;8.55;;;2.50;;
31336;SDS011;22846;42.654;23.314;2023-04-25T12:35:46;4.20;;;2.20;;
31336;SDS011;22846;42.654;23.314;2023-04-25T12:38:11;7.75;;;2.25;;
31336;SDS011;22846;42.654;23.314;2023-04-25T12:40:45;9.25;;;2.30;;
31336;SDS011;22846;42.654;23.314;2023-04-25T12:43:10;8.23;;;2.63;;
31336;SDS011;22846;42.654;23.314;2023-04-25T12:45:35;5.68;;;2.22;;
31336;SDS011;22846;42.654;23.314;2023-04-25T12:48:01;12.02;;;2.83;;
31336;SDS011;22846;42.654;23.314;2023-04-25T12:50:27;10.18;;;2.53;;
31336;SDS011;22846;42.654;23.314;2023-04-25T12:52:53;9.07;;;2.47;;
31336;SDS011;22846;42.654;23.314;2023-04-25T12:55:18;7.88;;;2.80;;
31336;SDS011;22846;42.654;23.314;2023-04-25T12:57:43;9.43;;;2.80;;
31336;SDS011;22846;42.654;23.314;2023-04-25T13:00:09;10.57;;;2.38;;
31336;SDS011;22846;42.654;23.314;2023-04-25T13:02:39;12.80;;;2.50;;
31336;SDS011;22846;42.654;23.314;2023-04-25T13:05:05;3.85;;;2.13;;
31336;SDS011;22846;42.654;23.314;2023-04-25T13:07:30;11.50;;;3.00;;
31336;SDS011;22846;42.654;23.314;2023-04-25T13:09:56;9.18;;;3.17;;
31336;SDS011;22846;42.654;23.314;2023-04-25T13:12:21;9.55;;;2.42;;
31336;SDS011;22846;42.654;23.314;2023-04-25T13:14:46;8.50;;;2.47;;
31336;SDS011;22846;42.654;23.314;2023-04-25T13:17:12;6.72;;;2.20;;
31336;SDS011;22846;42.654;23.314;2023-04-25T13:19:37;13.93;;;2.72;;
31336;SDS011;22846;42.654;23.314;2023-04-25T13:22:03;6.47;;;1.95;;
31336;SDS011;22846;42.654;23.314;2023-04-25T13:24:29;7.43;;;2.10;;
31336;SDS011;22846;42.654;23.314;2023-04-25T13:26:55;5.82;;;1.90;;
31336;SDS011;22846;42.654;23.314;2023-04-25T13:29:20;9.00;;;1.95;;
31336;SDS011;22846;42.654;23.314;2023-04-25T13:31:45;5.65;;;2.20;;
31336;SDS011;22846;42.654;23.314;2023-04-25T13:34:11;15.38;;;7.70;;
31336;SDS011;22846;42.654;23.314;2023-04-25T13:36:37;9.88;;;2.60;;
31336;SDS011;22846;42.654;23.314;2023-04-25T13:39:03;19.60;;;8.25;;
31336;SDS011;22846;42.654;23.314;2023-04-25T13:41:29;14.20;;;3.70;;
31336;SDS011;22846;42.654;23.314;2023-04-25T13:43:55;11.13;;;3.70;;
31336;SDS011;22846;42.654;23.314;2023-04-25T13:46:21;9.50;;;3.75;;
31336;SDS011;22846;42.654;23.314;2023-04-25T13:48:46;6.63;;;3.35;;
31336;SDS011;22846;42.654;23.314;2023-04-25T13:51:14;10.02;;;3.70;;
31336;SDS011;22846;42.654;23.314;2023-04-25T13:53:41;15.77;;;3.05;;
31336;SDS011;22846;42.654;23.314;2023-04-25T13:56:06;10.85;;;3.80;;
31336;SDS011;22846;42.654;23.314;2023-04-25T13:58:32;8.73;;;3.25;;
31336;SDS011;22846;42.654;23.314;2023-04-25T14:00:58;9.45;;;3.00;;
31336;SDS011;22846;42.654;23.314;2023-04-25T14:03:23;10.48;;;3.00;;
31336;SDS011;22846;42.654;23.314;2023-04-25T14:05:49;8.57;;;2.83;;
31336;SDS011;22846;42.654;23.314;2023-04-25T14:08:14;7.03;;;2.58;;
31336;SDS011;22846;42.654;23.314;2023-04-25T14:10:39;6.75;;;2.58;;
31336;SDS011;22846;42.654;23.314;2023-04-25T14:13:05;8.77;;;2.42;;
31336;SDS011;22846;42.654;23.314;2023-04-25T14:15:32;8.13;;;2.58;;
31336;SDS011;22846;42.654;23.314;2023-04-25T14:17:57;16.52;;;2.83;;
31336;SDS011;22846;42.654;23.314;2023-04-25T14:20:23;8.88;;;2.70;;
31336;SDS011;22846;42.654;23.314;2023-04-25T14:22:49;4.22;;;2.63;;
31336;SDS011;22846;42.654;23.314;2023-04-25T14:25:14;6.45;;;2.28;;
31336;SDS011;22846;42.654;23.314;2023-04-25T14:27:40;11.85;;;2.75;;
31336;SDS011;22846;42.654;23.314;2023-04-25T14:30:05;7.93;;;2.47;;
31336;SDS011;22846;42.654;23.314;2023-04-25T14:32:31;4.75;;;2.38;;
31336;SDS011;22846;42.654;23.314;2023-04-25T14:34:57;7.70;;;2.53;;
31336;SDS011;22846;42.654;23.314;2023-04-25T14:37:22;8.98;;;2.30;;
31336;SDS011;22846;42.654;23.314;2023-04-25T14:39:48;6.32;;;2.38;;
31336;SDS011;22846;42.654;23.314;2023-04-25T14:42:13;7.45;;;2.22;;
31336;SDS011;22846;42.654;23.314;2023-04-25T14:44:38;8.60;;;2.30;;
31336;SDS011;22846;42.654;23.314;2023-04-25T14:47:04;9.45;;;2.50;;
31336;SDS011;22846;42.654;23.314;2023-04-25T14:49:31;8.00;;;2.22;;